createdAt,value
2018-03-24T00:01:33.973Z,2.54
2018-03-24T00:04:03.792Z,2.52
2018-03-24T00:06:33.699Z,2.49
2018-03-24T00:09:03.279Z,2.46
2018-03-24T00:11:33.227Z,2.41
2018-03-24T00:14:02.918Z,2.38
2018-03-24T00:16:33.214Z,2.34
2018-03-24T00:19:03.059Z,2.31
2018-03-24T00:21:32.965Z,2.29
2018-03-24T00:24:02.785Z,2.28
2018-03-24T00:26:32.671Z,2.26
2018-03-24T00:29:02.561Z,2.26
2018-03-24T00:31:32.433Z,2.28
2018-03-24T00:34:02.503Z,2.27
2018-03-24T00:36:32.372Z,2.26
2018-03-24T00:39:02.247Z,2.26
2018-03-24T00:41:43.290Z,2.24
2018-03-24T00:44:15.550Z,2.26
2018-03-24T00:46:45.440Z,2.30
2018-03-24T00:49:15.374Z,2.31
2018-03-24T00:51:45.950Z,2.31
2018-03-24T00:54:15.828Z,2.28
2018-03-24T00:56:53.937Z,2.26
2018-03-24T00:59:36.485Z,2.26
2018-03-24T01:02:23.755Z,2.25
2018-03-24T01:04:58.688Z,2.26
2018-03-24T01:07:28.449Z,2.26
2018-03-24T01:09:58.402Z,2.27
2018-03-24T01:12:28.381Z,2.27
2018-03-24T01:14:58.427Z,2.30
2018-03-24T01:17:29.301Z,2.29
2018-03-24T01:20:05.867Z,2.35
2018-03-24T01:22:39.389Z,2.32
2018-03-24T01:25:09.214Z,2.34
2018-03-24T01:27:39.133Z,2.32
2018-03-24T01:30:09.063Z,2.34
2018-03-24T01:32:38.899Z,2.33
2018-03-24T01:35:09.430Z,2.33
2018-03-24T01:37:39.303Z,2.33
2018-03-24T01:40:09.169Z,2.31
2018-03-24T01:42:39.035Z,2.31
2018-03-24T01:45:08.751Z,2.30
2018-03-24T01:47:38.781Z,2.28
2018-03-24T01:50:08.610Z,2.25
2018-03-24T01:52:38.473Z,2.23
2018-03-24T01:55:08.025Z,2.21
2018-03-24T01:57:38.232Z,2.19
2018-03-24T02:00:11.920Z,2.18
2018-03-24T02:02:43.730Z,2.16
2018-03-24T02:05:14.235Z,2.15
2018-03-24T02:07:43.856Z,2.14
2018-03-24T02:10:13.746Z,2.13
2018-03-24T02:12:43.708Z,2.13
2018-03-24T02:15:13.394Z,2.16
2018-03-24T02:17:43.012Z,2.16
2018-03-24T02:20:15.534Z,2.16
2018-03-24T02:22:45.710Z,2.15
2018-03-24T02:25:16.300Z,2.20
2018-03-24T02:27:46.112Z,2.18
2018-03-24T02:30:16.024Z,2.20
2018-03-24T02:32:47.593Z,2.22
2018-03-24T02:35:17.501Z,2.18
2018-03-24T02:37:47.405Z,2.15
2018-03-24T02:40:17.219Z,2.12
2018-03-24T02:42:47.393Z,2.11
2018-03-24T02:45:17.248Z,2.21
2018-03-24T02:47:47.101Z,2.31
2018-03-24T02:50:16.948Z,2.27
2018-03-24T02:52:47.099Z,2.33
2018-03-24T02:55:17.023Z,2.24
2018-03-24T02:57:46.910Z,2.22
2018-03-24T03:00:16.778Z,2.19
2018-03-24T03:02:46.641Z,2.14
2018-03-24T03:05:16.244Z,2.10
2018-03-24T03:07:45.844Z,2.07
2018-03-24T03:10:15.674Z,2.08
2018-03-24T03:12:45.497Z,2.09
2018-03-24T03:15:15.449Z,2.06
2018-03-24T03:17:45.270Z,2.08
2018-03-24T03:20:24.115Z,2.09
2018-03-24T03:22:56.385Z,2.11
2018-03-24T03:25:26.253Z,2.13
2018-03-24T03:27:55.924Z,2.08
2018-03-24T03:33:38.882Z,2.04
2018-03-24T03:36:17.344Z,2.09
2018-03-24T03:38:48.401Z,2.13
2018-03-24T03:41:18.340Z,2.12
2018-03-24T03:43:48.394Z,2.11
2018-03-24T03:46:18.308Z,2.10
2018-03-24T03:48:48.458Z,2.06
2018-03-24T03:51:18.275Z,2.07
2018-03-24T03:53:48.212Z,2.07
2018-03-24T03:56:18.833Z,2.04
2018-03-24T03:58:48.696Z,2.05
2018-03-24T04:01:18.573Z,2.02
2018-03-24T04:03:48.476Z,1.98
2018-03-24T04:06:18.442Z,1.96
2018-03-24T04:08:48.428Z,1.94
2018-03-24T04:11:18.347Z,1.91
2018-03-24T04:13:48.248Z,1.94
2018-03-24T04:16:18.173Z,1.92
2018-03-24T04:18:48.088Z,1.96
2018-03-24T04:21:18.513Z,1.94
2018-03-24T04:23:48.407Z,1.93
2018-03-24T04:26:18.278Z,1.94
2018-03-24T04:28:52.134Z,1.92
2018-03-24T04:31:21.978Z,1.90
2018-03-24T04:33:52.472Z,1.88
2018-03-24T04:36:22.523Z,1.89
2018-03-24T04:38:52.439Z,1.85
2018-03-24T04:41:23.146Z,1.84
2018-03-24T04:43:53.027Z,1.85
2018-03-24T04:46:29.761Z,1.81
2018-03-24T04:49:15.968Z,1.79
2018-03-24T04:51:48.035Z,1.76
2018-03-24T04:54:18.153Z,1.76
2018-03-24T04:56:48.106Z,1.79
2018-03-24T04:59:17.970Z,1.82
2018-03-24T05:01:48.194Z,1.86
2018-03-24T05:04:29.081Z,1.90
2018-03-24T05:07:00.814Z,2.07
2018-03-24T05:09:41.194Z,2.06
2018-03-24T05:12:11.707Z,2.15
2018-03-24T05:14:41.509Z,2.20
2018-03-24T05:17:18.437Z,2.12
2018-03-24T05:19:50.213Z,2.16
2018-03-24T05:22:20.142Z,2.17
2018-03-24T05:24:50.101Z,2.27
2018-03-24T05:27:19.935Z,2.27
2018-03-24T05:29:50.113Z,2.32
2018-03-24T05:32:19.909Z,2.35
2018-03-24T05:34:49.729Z,2.40
2018-03-24T05:37:19.633Z,2.46
2018-03-24T05:39:49.532Z,2.51
2018-03-24T05:42:19.647Z,2.58
2018-03-24T05:44:49.519Z,2.68
2018-03-24T05:47:19.363Z,2.78
2018-03-24T05:49:49.212Z,2.87
2018-03-24T05:52:19.040Z,2.93
2018-03-24T05:54:48.922Z,3.03
2018-03-24T05:57:18.783Z,3.17
2018-03-24T05:59:48.684Z,3.26
2018-03-24T06:02:18.630Z,3.32
2018-03-24T06:04:48.482Z,3.38
2018-03-24T06:07:18.350Z,3.47
2018-03-24T06:09:48.206Z,3.57
2018-03-24T06:12:18.098Z,3.43
2018-03-24T06:14:48.276Z,3.40
2018-03-24T06:17:18.149Z,3.64
2018-03-24T06:19:48.701Z,3.80
2018-03-24T06:22:18.602Z,3.99
2018-03-24T06:24:48.458Z,4.14
2018-03-24T06:27:18.358Z,4.20
2018-03-24T06:29:48.102Z,4.31
2018-03-24T06:32:18.365Z,4.55
2018-03-24T06:34:48.012Z,4.46
2018-03-24T06:37:18.204Z,4.84
2018-03-24T06:39:48.318Z,4.94
2018-03-24T06:42:18.339Z,4.86
2018-03-24T06:44:48.285Z,4.68
2018-03-24T06:47:18.255Z,4.95
2018-03-24T06:49:48.460Z,5.23
2018-03-24T06:52:18.452Z,5.56
2018-03-24T06:54:48.386Z,5.56
2018-03-24T06:57:18.307Z,5.90
2018-03-24T06:59:48.183Z,6.01
2018-03-24T07:02:19.594Z,6.05
2018-03-24T07:04:50.909Z,6.15
2018-03-24T07:07:21.762Z,6.20
2018-03-24T07:09:52.324Z,6.08
2018-03-24T07:12:22.241Z,6.14
2018-03-24T07:14:52.107Z,6.11
2018-03-24T07:17:21.956Z,6.14
2018-03-24T07:19:51.889Z,6.14
2018-03-24T07:22:21.773Z,6.21
2018-03-24T07:24:51.731Z,6.32
2018-03-24T07:27:21.995Z,6.71
2018-03-24T07:29:51.872Z,7.06
2018-03-24T07:32:21.743Z,7.46
2018-03-24T07:34:51.579Z,7.48
2018-03-24T07:37:21.468Z,7.51
2018-03-24T07:39:51.322Z,7.87
2018-03-24T07:42:21.161Z,8.05
2018-03-24T07:44:51.023Z,7.53
2018-03-24T07:47:20.899Z,8.04
2018-03-24T07:49:50.702Z,8.30
2018-03-24T07:52:20.499Z,8.90
2018-03-24T07:54:50.301Z,9.38
2018-03-24T07:57:20.139Z,9.55
2018-03-24T07:59:50.036Z,9.97
2018-03-24T08:02:20.175Z,10.08
2018-03-24T08:04:50.056Z,9.92
2018-03-24T08:07:19.866Z,10.63
2018-03-24T08:09:49.726Z,9.57
2018-03-24T08:12:19.555Z,10.00
2018-03-24T08:14:49.434Z,10.08
2018-03-24T08:17:19.249Z,9.34
2018-03-24T08:19:49.093Z,10.52
2018-03-24T08:22:19.107Z,9.56
2018-03-24T08:24:49.051Z,9.45
2018-03-24T08:27:19.141Z,9.59
2018-03-24T08:29:49.020Z,10.05
2018-03-24T08:32:28.115Z,10.19
2018-03-24T08:34:58.869Z,10.77
2018-03-24T08:37:30.010Z,11.28
2018-03-24T08:40:00.617Z,11.07
2018-03-24T08:42:31.595Z,10.43
2018-03-24T08:45:02.183Z,11.27
2018-03-24T08:47:32.692Z,10.51
2018-03-24T08:50:03.345Z,10.53
2018-03-24T08:52:33.938Z,10.81
2018-03-24T08:55:04.454Z,10.57
2018-03-24T08:57:35.135Z,9.76
2018-03-24T09:00:05.383Z,10.27
2018-03-24T09:02:35.585Z,10.34
2018-03-24T09:05:05.592Z,11.16
2018-03-24T09:07:36.179Z,11.57
2018-03-24T09:10:06.590Z,10.79
2018-03-24T09:12:37.161Z,12.52
2018-03-24T09:15:07.853Z,13.23
2018-03-24T09:17:38.536Z,12.10
2018-03-24T09:20:08.995Z,14.06
2018-03-24T09:22:38.977Z,16.20
2018-03-24T09:25:08.954Z,14.95
2018-03-24T09:27:38.542Z,13.66
2018-03-24T09:30:08.113Z,16.88
2018-03-24T09:32:37.719Z,14.68
2018-03-24T09:35:07.217Z,13.79
2018-03-24T09:37:36.763Z,15.83
2018-03-24T09:40:06.396Z,18.45
2018-03-24T09:42:35.905Z,16.84
2018-03-24T09:45:05.254Z,18.29
2018-03-24T09:47:34.797Z,17.33
2018-03-24T09:50:04.322Z,17.21
2018-03-24T09:52:34.069Z,19.72
2018-03-24T09:55:03.618Z,15.60
2018-03-24T09:57:33.128Z,16.22
2018-03-24T10:00:02.812Z,16.10
2018-03-24T10:02:32.794Z,11.77
2018-03-24T10:05:02.123Z,12.39
2018-03-24T10:07:31.684Z,12.54
2018-03-24T10:10:01.460Z,11.39
2018-03-24T10:12:31.072Z,9.84
2018-03-24T10:15:00.845Z,9.42
2018-03-24T10:17:30.626Z,9.77
2018-03-24T10:20:00.349Z,9.69
2018-03-24T10:25:35.157Z,12.27
2018-03-24T10:28:05.703Z,10.33
2018-03-24T10:30:35.552Z,12.91
2018-03-24T10:33:05.408Z,12.28
2018-03-24T10:35:35.338Z,12.76
2018-03-24T10:38:04.850Z,14.30
2018-03-24T10:40:38.516Z,13.83
2018-03-24T10:43:13.706Z,14.93
2018-03-24T10:45:43.329Z,12.49
2018-03-24T10:48:13.203Z,12.42
2018-03-24T10:50:43.286Z,13.95
2018-03-24T10:53:13.072Z,12.12
2018-03-24T10:55:46.768Z,13.91
2018-03-24T10:58:17.018Z,12.12
2018-03-24T11:00:52.381Z,13.34
2018-03-24T11:03:21.932Z,13.40
2018-03-24T11:05:51.496Z,14.03
2018-03-24T11:08:21.045Z,17.98
2018-03-24T11:10:50.654Z,17.21
2018-03-24T11:13:20.168Z,17.49
2018-03-24T11:15:49.696Z,18.25
2018-03-24T11:18:19.257Z,19.67
2018-03-24T11:20:49.102Z,19.12
2018-03-24T11:23:18.427Z,18.18
2018-03-24T11:25:48.016Z,19.83
2018-03-24T11:28:17.508Z,18.50
2018-03-24T11:30:47.052Z,19.10
2018-03-24T11:33:16.362Z,18.67
2018-03-24T11:35:46.790Z,15.53
2018-03-24T11:38:16.555Z,17.34
2018-03-24T11:40:46.088Z,19.31
2018-03-24T11:43:15.714Z,17.39
2018-03-24T11:45:45.857Z,16.68
2018-03-24T11:48:15.397Z,18.15
2018-03-24T11:50:44.930Z,15.79
2018-03-24T11:53:14.583Z,14.23
2018-03-24T11:55:44.995Z,16.20
2018-03-24T11:58:15.475Z,14.66
2018-03-24T12:00:45.051Z,15.05
2018-03-24T12:03:14.560Z,16.01
2018-03-24T12:05:44.097Z,17.78
2018-03-24T12:08:13.605Z,19.58
2018-03-24T12:10:43.105Z,20.51
2018-03-24T12:13:12.680Z,16.87
2018-03-24T12:15:42.191Z,15.56
2018-03-24T12:18:11.694Z,17.33
2018-03-24T12:20:41.245Z,15.22
2018-03-24T12:23:10.766Z,18.75
2018-03-24T12:25:40.297Z,18.49
2018-03-24T12:28:10.099Z,19.78
2018-03-24T12:30:39.668Z,20.10
2018-03-24T12:33:09.283Z,22.58
2018-03-24T12:35:38.804Z,21.21
2018-03-24T12:38:08.389Z,17.59
2018-03-24T12:40:37.972Z,20.17
2018-03-24T12:43:07.521Z,22.32
2018-03-24T12:45:37.213Z,23.18
2018-03-24T12:48:06.731Z,18.09
2018-03-24T12:50:36.268Z,18.56
2018-03-24T12:53:05.814Z,18.38
2018-03-24T12:55:35.318Z,18.40
2018-03-24T12:58:05.429Z,17.27
2018-03-24T13:00:34.945Z,18.55
2018-03-24T13:03:04.865Z,17.00
2018-03-24T13:05:34.499Z,19.67
2018-03-24T13:08:04.024Z,18.81
2018-03-24T13:10:34.064Z,21.32
2018-03-24T13:13:03.592Z,19.70
2018-03-24T13:15:33.146Z,20.26
2018-03-24T13:18:02.659Z,22.86
2018-03-24T13:20:31.897Z,23.54
2018-03-24T13:23:01.433Z,20.54
2018-03-24T13:25:30.943Z,19.45
2018-03-24T13:28:00.472Z,17.89
2018-03-24T13:30:30.021Z,18.23
2018-03-24T13:32:59.550Z,20.88
2018-03-24T13:35:29.052Z,18.28
2018-03-24T13:37:58.661Z,19.63
2018-03-24T13:40:28.163Z,22.02
2018-03-24T13:42:57.745Z,20.76
2018-03-24T13:45:27.248Z,19.81
2018-03-24T13:47:56.816Z,19.78
2018-03-24T13:50:26.400Z,21.58
2018-03-24T13:52:55.945Z,21.68
2018-03-24T13:55:25.484Z,21.92
2018-03-24T13:57:55.089Z,21.35
2018-03-24T14:00:24.611Z,19.24
2018-03-24T14:02:54.149Z,19.97
2018-03-24T14:05:23.673Z,20.85
2018-03-24T14:07:53.199Z,22.93
2018-03-24T14:10:22.702Z,22.28
2018-03-24T14:12:52.271Z,22.28
2018-03-24T14:15:21.597Z,21.96
2018-03-24T14:17:51.117Z,23.00
2018-03-24T14:20:20.635Z,18.78
2018-03-24T14:22:49.977Z,24.72
2018-03-24T14:25:19.484Z,24.53
2018-03-24T14:27:49.025Z,22.61
2018-03-24T14:30:18.559Z,16.52
2018-03-24T14:32:52.120Z,14.32
2018-03-24T14:35:21.642Z,13.89
2018-03-24T14:37:51.152Z,12.35
2018-03-24T14:40:20.679Z,13.15
2018-03-24T14:42:50.526Z,12.82
2018-03-24T14:45:20.364Z,12.30
2018-03-24T14:47:50.180Z,11.96
2018-03-24T14:50:20.027Z,12.02
2018-03-24T14:52:49.844Z,12.19
2018-03-24T14:55:19.637Z,12.38
2018-03-24T14:57:49.644Z,11.84
2018-03-24T15:00:19.739Z,12.57
2018-03-24T15:02:49.603Z,12.34
2018-03-24T15:05:19.458Z,12.20
2018-03-24T15:07:49.291Z,11.74
2018-03-24T15:10:19.295Z,11.73
2018-03-24T15:12:49.182Z,11.97
2018-03-24T15:15:19.041Z,11.94
2018-03-24T15:17:48.844Z,11.84
2018-03-24T15:20:18.636Z,11.78
2018-03-24T15:22:48.449Z,12.00
2018-03-24T15:25:18.016Z,11.85
2018-03-24T15:27:47.881Z,11.56
2018-03-24T15:30:28.762Z,11.69
2018-03-24T15:33:09.486Z,11.50
2018-03-24T15:35:38.720Z,11.73
2018-03-24T15:38:08.270Z,11.62
2018-03-24T15:40:38.061Z,11.73
2018-03-24T15:43:07.980Z,11.71
2018-03-24T15:45:41.804Z,11.33
2018-03-24T15:48:11.798Z,11.06
2018-03-24T15:50:41.650Z,11.21
2018-03-24T15:53:11.504Z,11.08
2018-03-24T15:55:41.150Z,11.04
2018-03-24T15:58:10.849Z,10.78
2018-03-24T16:00:41.505Z,10.51
2018-03-24T16:03:11.353Z,10.69
2018-03-24T16:05:41.168Z,10.75
2018-03-24T16:08:14.791Z,10.85
2018-03-24T16:10:44.596Z,10.83
2018-03-24T16:13:14.397Z,10.64
2018-03-24T16:15:44.287Z,10.68
2018-03-24T16:18:14.212Z,10.34
2018-03-24T16:20:43.815Z,10.48
2018-03-24T16:23:13.603Z,10.36
2018-03-24T16:25:43.412Z,10.31
2018-03-24T16:28:13.242Z,10.23
2018-03-24T16:30:43.037Z,10.12
2018-03-24T16:33:12.864Z,10.10
2018-03-24T16:35:42.758Z,10.07
2018-03-24T16:38:12.562Z,9.88
2018-03-24T16:40:42.934Z,9.84
2018-03-24T16:43:12.840Z,9.70
2018-03-24T16:45:42.658Z,9.62
2018-03-24T16:48:17.390Z,9.51
2018-03-24T16:50:55.464Z,9.40
2018-03-24T16:53:27.298Z,9.28
2018-03-24T16:55:58.580Z,9.10
2018-03-24T16:58:28.585Z,9.02
2018-03-24T17:00:58.695Z,8.94
2018-03-24T17:03:28.610Z,8.78
2018-03-24T17:05:58.466Z,8.73
2018-03-24T17:08:28.388Z,8.60
2018-03-24T17:10:58.587Z,8.41
2018-03-24T17:13:28.553Z,8.31
2018-03-24T17:15:58.432Z,8.40
2018-03-24T17:18:28.280Z,8.57
2018-03-24T17:20:58.069Z,8.24
2018-03-24T17:23:27.884Z,8.15
2018-03-24T17:25:57.753Z,7.96
2018-03-24T17:28:27.630Z,8.05
2018-03-24T17:30:58.229Z,8.04
2018-03-24T17:33:28.018Z,7.78
2018-03-24T17:35:57.836Z,7.62
2018-03-24T17:38:27.682Z,7.43
2018-03-24T17:40:57.260Z,7.21
2018-03-24T17:43:27.066Z,7.16
2018-03-24T17:45:56.876Z,7.06
2018-03-24T17:48:26.692Z,6.93
2018-03-24T17:50:56.328Z,6.79
2018-03-24T17:53:26.129Z,6.93
2018-03-24T17:55:55.957Z,6.70
2018-03-24T17:58:26.229Z,6.65
2018-03-24T18:00:56.122Z,6.68
2018-03-24T18:03:25.930Z,6.89
2018-03-24T18:05:55.735Z,6.80
2018-03-24T18:08:26.340Z,6.82
2018-03-24T18:10:56.176Z,6.90
2018-03-24T18:13:26.229Z,6.80
2018-03-24T18:15:56.033Z,6.53
2018-03-24T18:18:25.833Z,6.31
2018-03-24T18:20:55.673Z,6.05
2018-03-24T18:23:26.199Z,5.89
2018-03-24T18:25:56.520Z,5.71
2018-03-24T18:28:26.406Z,5.53
2018-03-24T18:30:56.897Z,5.39
2018-03-24T18:33:27.118Z,5.31
2018-03-24T18:35:58.146Z,5.27
2018-03-24T18:38:28.173Z,5.15
2018-03-24T18:40:57.995Z,4.99
2018-03-24T18:43:32.540Z,5.12
2018-03-24T18:46:02.701Z,5.13
2018-03-24T18:48:32.488Z,4.98
2018-03-24T18:51:02.296Z,4.92
2018-03-24T18:53:32.122Z,4.81
2018-03-24T18:56:02.182Z,4.85
2018-03-24T18:58:31.993Z,4.97
2018-03-24T19:01:01.798Z,4.89
2018-03-24T19:03:31.648Z,4.74
2018-03-24T19:06:01.620Z,4.77
2018-03-24T19:08:31.160Z,4.70
2018-03-24T19:11:00.971Z,4.60
2018-03-24T19:13:30.817Z,4.50
2018-03-24T19:16:00.904Z,4.45
2018-03-24T19:18:30.701Z,4.37
2018-03-24T19:21:00.516Z,4.48
2018-03-24T19:23:30.344Z,4.41
2018-03-24T19:26:00.613Z,4.46
2018-03-24T19:28:30.422Z,4.38
2018-03-24T19:31:00.357Z,4.41
2018-03-24T19:33:30.191Z,4.30
2018-03-24T19:35:59.996Z,4.18
2018-03-24T19:38:29.819Z,4.12
2018-03-24T19:41:00.428Z,4.20
2018-03-24T19:43:30.232Z,4.09
2018-03-24T19:46:00.750Z,3.98
2018-03-24T19:48:30.638Z,3.99
2018-03-24T19:51:00.475Z,3.96
2018-03-24T19:53:30.479Z,3.87
2018-03-24T19:56:00.275Z,3.87
2018-03-24T19:58:30.091Z,3.90
2018-03-24T20:00:59.984Z,3.73
2018-03-24T20:03:30.493Z,3.64
2018-03-24T20:06:00.325Z,3.66
2018-03-24T20:08:30.774Z,3.75
2018-03-24T20:11:00.573Z,3.73
2018-03-24T20:13:30.401Z,3.67
2018-03-24T20:16:00.733Z,3.77
2018-03-24T20:18:35.879Z,3.63
2018-03-24T20:21:06.104Z,3.52
2018-03-24T20:23:36.652Z,3.55
2018-03-24T20:26:07.188Z,3.79
2018-03-24T20:28:37.006Z,3.67
2018-03-24T20:31:06.796Z,3.65
2018-03-24T20:33:36.593Z,3.70
2018-03-24T20:36:06.623Z,3.72
2018-03-24T20:38:36.427Z,3.58
2018-03-24T20:41:06.289Z,3.54
2018-03-24T20:43:36.104Z,3.42
2018-03-24T20:46:05.943Z,3.35
2018-03-24T20:48:35.732Z,3.20
2018-03-24T20:51:05.612Z,3.25
2018-03-24T20:53:35.311Z,3.19
2018-03-24T20:56:05.102Z,3.08
2018-03-24T20:58:34.934Z,3.04
2018-03-24T21:01:04.732Z,3.08
2018-03-24T21:03:34.652Z,3.00
2018-03-24T21:06:04.607Z,2.92
2018-03-24T21:08:35.150Z,2.91
2018-03-24T21:11:05.653Z,2.75
2018-03-24T21:13:36.160Z,2.70
2018-03-24T21:16:06.382Z,2.68
2018-03-24T21:18:42.122Z,2.65
2018-03-24T21:21:12.183Z,2.53
2018-03-24T21:23:42.018Z,2.52
2018-03-24T21:26:11.950Z,2.42
2018-03-24T21:28:41.855Z,2.27
2018-03-24T21:31:11.765Z,2.18
2018-03-24T21:33:42.191Z,2.21
2018-03-24T21:36:12.140Z,2.32
2018-03-24T21:38:42.108Z,2.39
2018-03-24T21:41:11.987Z,2.59
2018-03-24T21:43:42.433Z,2.58
2018-03-24T21:46:12.647Z,2.52
2018-03-24T21:48:42.498Z,2.42
2018-03-24T21:51:12.405Z,2.39
2018-03-24T21:53:42.226Z,2.32
2018-03-24T21:56:12.233Z,2.22
2018-03-24T21:58:42.182Z,2.16
2018-03-24T22:01:12.581Z,2.19
2018-03-24T22:03:42.536Z,2.17
2018-03-24T22:06:12.362Z,2.26
2018-03-24T22:08:42.236Z,2.59
2018-03-24T22:11:12.067Z,2.89
2018-03-24T22:13:42.036Z,2.93
2018-03-24T22:16:11.957Z,3.42
2018-03-24T22:18:41.612Z,3.22
2018-03-24T22:21:11.421Z,3.14
2018-03-24T22:23:42.349Z,3.56
2018-03-24T22:26:12.786Z,3.44
2018-03-24T22:28:42.860Z,3.25
2018-03-24T22:31:12.802Z,2.98
2018-03-24T22:33:43.195Z,3.07
2018-03-24T22:36:13.150Z,2.93
2018-03-24T22:38:42.984Z,2.99
2018-03-24T22:41:12.911Z,2.94
2018-03-24T22:43:42.802Z,2.89
2018-03-24T22:46:12.695Z,2.75
2018-03-24T22:48:42.578Z,2.50
2018-03-24T22:51:12.590Z,2.39
2018-03-24T22:53:42.609Z,2.30
2018-03-24T22:56:12.515Z,2.11
2018-03-24T22:58:42.357Z,1.97
2018-03-24T23:01:12.315Z,1.86
2018-03-24T23:03:42.328Z,1.69
2018-03-24T23:06:12.890Z,1.60
2018-03-24T23:08:42.874Z,1.46
2018-03-24T23:11:13.324Z,1.44
2018-03-24T23:13:43.150Z,1.57
2018-03-24T23:16:12.729Z,1.46
2018-03-24T23:18:42.669Z,1.35
2018-03-24T23:21:12.578Z,1.22
2018-03-24T23:23:42.493Z,1.15
2018-03-24T23:26:12.418Z,1.06
2018-03-24T23:28:42.270Z,0.96
2018-03-24T23:31:12.134Z,1.00
2018-03-24T23:33:42.003Z,1.03
2018-03-24T23:36:11.881Z,0.95
2018-03-24T23:38:41.696Z,0.93
2018-03-24T23:41:11.833Z,0.80
2018-03-24T23:43:41.681Z,0.68
2018-03-24T23:46:11.373Z,0.71
2018-03-24T23:48:41.257Z,0.64
2018-03-24T23:51:11.968Z,0.57
2018-03-24T23:53:41.781Z,0.52
2018-03-24T23:56:11.676Z,0.48
2018-03-24T23:58:41.649Z,0.39
